Time;durP1;ratioP1;P1;durP2;ratioP2;P2;SDS_P1;SDS_P2;PMS_P1;PMS_P2;Temp;Humidity;BMP_temperature;BMP_pressure;BME280_temperature;BME280_humidity;BME280_pressure;Samples;Min_cycle;Max_cycle;Signal;HPM_P1;HPM_P2
2023/03/08 00:01:21;;;;;;;15.60;9.90;;;;;;;0.77;100.00;98561.97;104954;1255;72353;-48
2023/03/08 00:03:53;;;;;;;13.20;8.00;;;;;;;0.75;100.00;98555.13;105143;1253;61094;-46
2023/03/08 00:06:22;;;;;;;15.60;9.50;;;;;;;0.75;100.00;98550.89;105234;1261;60422;-47
2023/03/08 00:08:57;;;;;;;14.20;7.50;;;;;;;0.75;100.00;98547.90;104894;1256;72561;-46
2023/03/08 00:11:28;;;;;;;15.30;8.30;;;;;;;0.75;100.00;98540.66;105253;1258;69193;-45
2023/03/08 00:13:56;;;;;;;15.90;7.80;;;;;;;0.75;100.00;98537.81;105429;1258;70491;-47
2023/03/08 00:16:24;;;;;;;12.00;7.40;;;;;;;0.78;100.00;98534.04;104973;1257;60842;-43
2023/03/08 00:18:52;;;;;;;15.00;9.00;;;;;;;0.80;100.00;98538.56;105246;1258;61514;-46
2023/03/08 00:21:20;;;;;;;12.80;8.00;;;;;;;0.82;100.00;98529.86;104955;1259;73424;-48
2023/03/08 00:23:51;;;;;;;10.80;7.80;;;;;;;0.84;100.00;98530.67;105147;1256;69522;-46
2023/03/08 00:26:19;;;;;;;13.10;7.10;;;;;;;0.86;100.00;98533.78;105231;1256;70319;-49
2023/03/08 00:28:48;;;;;;;11.90;8.20;;;;;;;0.90;100.00;98525.92;104995;1256;62165;-49
2023/03/08 00:31:16;;;;;;;10.80;7.50;;;;;;;0.93;100.00;98523.69;104904;1259;60782;-45
2023/03/08 00:33:45;;;;;;;12.80;7.70;;;;;;;0.97;100.00;98521.45;105645;1255;73505;-45
2023/03/08 00:36:16;;;;;;;14.90;8.40;;;;;;;1.02;100.00;98513.02;105110;1254;69109;-46
2023/03/08 00:38:46;;;;;;;12.30;7.90;;;;;;;1.05;100.00;98507.61;105306;1258;71136;-48
2023/03/08 00:41:14;;;;;;;10.80;8.70;;;;;;;1.10;100.00;98504.29;105901;1258;62163;-45
2023/03/08 00:43:42;;;;;;;14.10;7.80;;;;;;;1.14;100.00;98499.02;105527;1259;60522;-48
2023/03/08 00:46:11;;;;;;;12.70;8.20;;;;;;;1.18;100.00;98495.74;104343;1260;72717;-49
2023/03/08 00:48:39;;;;;;;10.30;7.10;;;;;;;1.22;100.00;98492.95;104586;1260;66737;-48
2023/03/08 00:51:09;;;;;;;10.40;7.00;;;;;;;1.26;100.00;98498.52;105117;1255;71138;-46
2023/03/08 00:53:37;;;;;;;14.40;8.60;;;;;;;1.28;100.00;98487.80;105251;1256;60409;-47
2023/03/08 00:56:05;;;;;;;13.90;8.50;;;;;;;1.31;100.00;98489.15;104740;1255;60532;-44
2023/03/08 00:58:33;;;;;;;12.00;8.70;;;;;;;1.33;100.00;98487.33;105187;1260;75007;-48
2023/03/08 01:01:03;;;;;;;11.90;8.40;;;;;;;1.34;100.00;98483.58;104944;1259;67204;-48
2023/03/08 01:03:32;;;;;;;12.30;8.60;;;;;;;1.36;100.00;98478.73;105704;1259;72175;-46
2023/03/08 01:06:06;;;;;;;14.70;8.40;;;;;;;1.38;100.00;98472.14;104333;1259;60481;-46
2023/03/08 01:08:34;;;;;;;13.20;7.70;;;;;;;1.39;100.00;98465.73;104901;1260;60458;-46
2023/03/08 01:11:02;;;;;;;17.80;8.40;;;;;;;1.41;100.00;98464.77;104887;1256;73017;-48
2023/03/08 01:13:32;;;;;;;14.30;8.60;;;;;;;1.44;100.00;98459.39;105179;1258;66949;-45
2023/03/08 01:16:00;;;;;;;15.10;9.60;;;;;;;1.47;100.00;98460.86;104945;1259;72852;-46
2023/03/08 01:18:29;;;;;;;17.50;9.10;;;;;;;1.52;100.00;98460.21;105116;1257;60716;-46
2023/03/08 01:20:58;;;;;;;11.70;8.60;;;;;;;1.55;100.00;98456.20;105045;1259;60946;-45
2023/03/08 01:23:26;;;;;;;11.30;8.50;;;;;;;1.59;100.00;98464.40;105072;1261;72997;-47
2023/03/08 01:26:02;;;;;;;13.60;8.70;;;;;;;1.62;100.00;98461.11;106017;1255;67868;-47
2023/03/08 01:28:30;;;;;;;16.70;9.20;;;;;;;1.65;100.00;98455.52;104911;1256;73605;-46
2023/03/08 01:31:04;;;;;;;13.50;10.10;;;;;;;1.67;100.00;98451.02;105224;1255;62395;-47
2023/03/08 01:33:34;;;;;;;;;;;;;;;1.70;100.00;98455.55;104877;1258;61883;-48
2023/03/08 01:36:07;;;;;;;16.60;9.60;;;;;;;1.70;100.00;98455.34;104928;1259;73300;-47
2023/03/08 01:38:35;;;;;;;17.90;11.10;;;;;;;1.71;100.00;98450.69;105361;1260;66571;-47
2023/03/08 01:41:04;;;;;;;15.30;10.40;;;;;;;1.72;100.00;98445.55;104879;1258;74590;-48
2023/03/08 01:43:35;;;;;;;14.70;10.00;;;;;;;1.74;100.00;98443.20;105978;1266;60982;-46
2023/03/08 01:46:05;;;;;;;15.60;9.80;;;;;;;1.75;100.00;98445.63;104983;1259;61183;-47
2023/03/08 01:48:42;;;;;;;17.70;10.80;;;;;;;1.76;100.00;98442.42;105014;1255;74020;-50
2023/03/08 01:51:20;;;;;;;16.40;10.50;;;;;;;1.78;100.00;98441.30;104743;1261;69072;-49
2023/03/08 01:53:48;;;;;;;22.20;11.30;;;;;;;1.80;100.00;98440.48;105143;1257;70518;-48
2023/03/08 01:56:16;;;;;;;17.40;11.60;;;;;;;1.82;100.00;98439.73;104713;1254;60788;-47
2023/03/08 01:58:45;;;;;;;17.10;9.60;;;;;;;1.84;100.00;98438.95;105045;1257;60442;-49
2023/03/08 02:01:14;;;;;;;15.50;10.30;;;;;;;1.87;100.00;98440.29;105281;1260;71328;-46
2023/03/08 02:03:43;;;;;;;18.40;10.40;;;;;;;1.89;100.00;98447.80;104931;1259;69083;-47
2023/03/08 02:06:11;;;;;;;14.00;9.10;;;;;;;1.91;100.00;98439.43;104946;1256;70723;-48
2023/03/08 02:08:41;;;;;;;14.60;8.70;;;;;;;1.92;100.00;98440.80;105900;1259;61688;-47
2023/03/08 02:11:09;;;;;;;15.70;9.90;;;;;;;1.94;100.00;98432.61;104971;1259;60429;-46
2023/03/08 02:13:38;;;;;;;14.30;10.00;;;;;;;1.96;100.00;98436.09;104822;1258;73231;-48
2023/03/08 02:16:09;;;;;;;16.40;11.10;;;;;;;1.97;100.00;98440.96;104961;1258;68450;-48
2023/03/08 02:18:55;;;;;;;18.60;11.10;;;;;;;1.99;100.00;98439.15;105074;1260;74747;-48
2023/03/08 02:21:25;;;;;;;15.40;9.80;;;;;;;1.99;100.00;98435.23;104764;1260;60578;-48
2023/03/08 02:23:53;;;;;;;14.20;8.80;;;;;;;1.99;100.00;98432.78;105108;1258;60312;-47
2023/03/08 02:26:25;;;;;;;16.80;9.80;;;;;;;2.00;100.00;98433.80;105113;1259;72891;-47
2023/03/08 02:28:53;;;;;;;17.10;11.10;;;;;;;2.00;100.00;98430.44;104884;1256;70685;-48
2023/03/08 02:31:21;;;;;;;15.60;9.30;;;;;;;2.01;100.00;98430.41;104783;1260;71523;-48
2023/03/08 02:33:49;;;;;;;16.60;10.90;;;;;;;2.02;100.00;98424.39;104986;1260;62817;-48
2023/03/08 02:36:18;;;;;;;15.90;9.30;;;;;;;2.03;100.00;98421.48;105035;1255;60614;-46
2023/03/08 02:38:46;;;;;;;15.70;9.10;;;;;;;2.04;100.00;98417.73;105036;1258;71796;-48
2023/03/08 02:41:14;;;;;;;13.90;9.70;;;;;;;2.04;100.00;98417.21;104962;1260;67957;-48
2023/03/08 02:43:43;;;;;;;17.50;9.40;;;;;;;2.05;100.00;98423.73;104961;1257;71833;-47
2023/03/08 02:46:12;;;;;;;15.20;10.40;;;;;;;2.06;100.00;98421.37;104803;1260;60430;-45
2023/03/08 02:48:40;;;;;;;17.40;11.60;;;;;;;2.07;100.00;98426.11;106419;1258;60979;-48
2023/03/08 02:51:08;;;;;;;17.50;10.80;;;;;;;2.08;100.00;98422.39;105620;1254;74080;-47
2023/03/08 02:53:37;;;;;;;20.90;11.70;;;;;;;2.08;100.00;98422.92;104925;1259;68545;-48
2023/03/08 02:56:05;;;;;;;19.00;11.70;;;;;;;2.06;100.00;98417.29;105075;1260;73988;-46
2023/03/08 02:58:35;;;;;;;20.40;11.50;;;;;;;2.05;100.00;98417.36;105113;1265;62138;-48
2023/03/08 03:01:09;;;;;;;21.10;11.20;;;;;;;2.03;100.00;98415.65;104886;1261;60272;-47
2023/03/08 03:03:38;;;;;;;17.10;10.70;;;;;;;2.02;100.00;98416.23;105385;1258;73902;-47
2023/03/08 03:06:18;;;;;;;18.00;9.60;;;;;;;2.01;100.00;98415.02;105095;1260;68158;-48
2023/03/08 03:08:48;;;;;;;13.80;9.70;;;;;;;2.01;100.00;98412.00;105585;1257;71899;-45
2023/03/08 03:11:21;;;;;;;18.70;10.60;;;;;;;2.01;100.00;98413.07;104902;1254;60701;-49
2023/03/08 03:13:57;;;;;;;;;;;;;;;2.02;100.00;98409.52;105048;1262;60410;-48
2023/03/08 03:16:29;;;;;;;17.10;10.10;;;;;;;2.01;100.00;98411.30;104964;1258;71651;-45
2023/03/08 03:18:57;;;;;;;15.50;10.20;;;;;;;2.01;100.00;98407.93;105084;1258;69078;-49
2023/03/08 03:21:26;;;;;;;16.90;9.90;;;;;;;2.03;100.00;98409.67;105249;1259;72407;-49
2023/03/08 03:23:54;;;;;;;17.30;10.00;;;;;;;2.03;100.00;98407.35;104920;1254;60508;-47
2023/03/08 03:26:27;;;;;;;18.60;11.00;;;;;;;2.03;100.00;98403.61;105300;1258;60841;-46
2023/03/08 03:28:56;;;;;;;18.40;11.90;;;;;;;2.04;100.00;98407.67;105563;1254;72857;-47
2023/03/08 03:31:26;;;;;;;19.00;11.00;;;;;;;2.02;100.00;98402.07;105034;1257;67531;-48
2023/03/08 03:33:54;;;;;;;17.00;11.30;;;;;;;2.02;100.00;98394.47;105235;1260;71989;-48
2023/03/08 03:36:24;;;;;;;16.50;9.90;;;;;;;2.01;100.00;98388.84;104985;1257;62010;-46
2023/03/08 03:38:53;;;;;;;14.40;10.40;;;;;;;2.01;100.00;98380.54;105019;1256;60874;-47
2023/03/08 03:41:22;;;;;;;14.40;9.60;;;;;;;2.00;100.00;98372.59;105058;1260;74913;-47
2023/03/08 03:43:55;;;;;;;13.50;9.10;;;;;;;2.00;100.00;98377.73;105285;1257;66925;-47
2023/03/08 03:46:26;;;;;;;17.10;10.10;;;;;;;2.01;100.00;98384.95;105142;1257;73541;-47
2023/03/08 03:48:54;;;;;;;15.20;9.50;;;;;;;2.01;100.00;98378.22;104997;1260;60661;-47
2023/03/08 03:51:23;;;;;;;14.80;9.00;;;;;;;2.01;100.00;98374.32;105658;1257;60550;-47
2023/03/08 03:53:59;;;;;;;19.10;9.90;;;;;;;2.02;100.00;98373.41;104507;1257;73354;-47
2023/03/08 03:56:28;;;;;;;16.30;9.90;;;;;;;2.02;100.00;98374.29;108972;1254;67229;-48
2023/03/08 03:58:58;;;;;;;15.20;9.70;;;;;;;2.04;100.00;98374.23;108993;1254;72851;-48
2023/03/08 04:01:28;;;;;;;13.80;9.30;;;;;;;2.04;100.00;98369.82;107915;1257;59465;-48
2023/03/08 04:04:04;;;;;;;14.40;10.20;;;;;;;2.03;100.00;98364.34;105074;1255;61394;-46
2023/03/08 04:06:34;;;;;;;18.10;10.50;;;;;;;2.02;100.00;98353.95;105006;1256;73811;-47
2023/03/08 04:09:12;;;;;;;14.10;9.60;;;;;;;2.02;100.00;98349.36;104938;1257;67557;-48
2023/03/08 04:11:41;;;;;;;19.20;10.90;;;;;;;2.02;100.00;98343.16;105072;1254;70589;-48
2023/03/08 04:14:13;;;;;;;14.50;9.60;;;;;;;2.02;100.00;98341.90;105019;1258;61093;-48
2023/03/08 04:16:43;;;;;;;17.80;10.20;;;;;;;2.02;100.00;98349.16;105091;1254;60523;-46
2023/03/08 04:19:21;;;;;;;13.70;9.00;;;;;;;2.03;100.00;98342.79;105580;1258;73261;-48
2023/03/08 04:21:52;;;;;;;12.10;8.50;;;;;;;2.02;100.00;98336.95;105417;1257;66349;-49
2023/03/08 04:24:22;;;;;;;16.90;9.30;;;;;;;2.02;100.00;98336.25;105216;1254;72466;-48
2023/03/08 04:26:53;;;;;;;16.00;8.40;;;;;;;2.02;100.00;98331.48;104920;1255;60286;-47
2023/03/08 04:29:23;;;;;;;11.40;8.80;;;;;;;2.02;100.00;98333.07;105102;1259;60438;-48
2023/03/08 04:31:54;;;;;;;12.70;9.30;;;;;;;2.03;100.00;98341.54;105126;1255;72171;-48
2023/03/08 04:34:23;;;;;;;13.60;8.90;;;;;;;2.03;100.00;98341.89;104830;1254;68923;-48
2023/03/08 04:36:53;;;;;;;14.90;9.70;;;;;;;2.04;100.00;98345.39;105052;1255;71566;-48
2023/03/08 04:39:21;;;;;;;14.20;9.20;;;;;;;2.04;100.00;98347.85;105090;1254;60814;-47
2023/03/08 04:41:49;;;;;;;13.10;9.20;;;;;;;2.05;100.00;98347.29;105284;1255;60470;-50
2023/03/08 04:44:30;;;;;;;17.20;9.70;;;;;;;2.04;100.00;98346.77;104962;1261;73691;-47
2023/03/08 04:47:00;;;;;;;14.20;9.40;;;;;;;2.04;100.00;98342.73;104926;1257;68566;-46
2023/03/08 04:49:40;;;;;;;14.80;9.10;;;;;;;2.03;100.00;98343.65;104751;1254;73437;-48
2023/03/08 04:52:08;;;;;;;13.50;7.60;;;;;;;2.02;100.00;98339.27;105027;1257;60463;-48
2023/03/08 04:54:38;;;;;;;15.40;9.50;;;;;;;2.01;100.00;98335.40;105744;1260;60394;-48
2023/03/08 04:57:14;;;;;;;17.40;8.80;;;;;;;2.01;100.00;98335.77;105902;1254;74099;-47
2023/03/08 04:59:43;;;;;;;17.10;9.80;;;;;;;2.00;100.00;98336.33;105036;1258;67993;-49
2023/03/08 05:02:11;;;;;;;16.00;9.20;;;;;;;1.99;100.00;98336.71;104624;1254;71770;-49
2023/03/08 05:04:40;;;;;;;17.20;10.30;;;;;;;1.99;100.00;98326.61;105048;1258;60608;-49
2023/03/08 05:07:10;;;;;;;14.10;10.20;;;;;;;2.01;100.00;98321.44;105049;1257;60439;-49
2023/03/08 05:09:38;;;;;;;14.50;9.60;;;;;;;2.02;100.00;98316.98;104983;1259;72782;-50
2023/03/08 05:12:07;;;;;;;15.00;9.20;;;;;;;2.03;100.00;98311.27;105267;1257;67004;-50
2023/03/08 05:14:46;;;;;;;14.10;8.60;;;;;;;2.04;100.00;98311.89;104849;1257;71301;-49
2023/03/08 05:17:14;;;;;;;16.40;10.60;;;;;;;2.06;100.00;98319.63;104892;1258;60488;-48
2023/03/08 05:19:47;;;;;;;15.10;8.90;;;;;;;2.08;100.00;98317.79;104912;1255;61793;-49
2023/03/08 05:22:18;;;;;;;17.60;10.60;;;;;;;2.09;100.00;98320.77;104949;1254;72229;-50
2023/03/08 05:24:49;;;;;;;18.50;12.10;;;;;;;2.09;100.00;98324.50;105075;1261;67262;-49
2023/03/08 05:27:18;;;;;;;16.40;10.80;;;;;;;2.08;100.00;98323.27;104905;1257;70833;-49
2023/03/08 05:29:46;;;;;;;13.60;9.70;;;;;;;2.09;100.00;98324.15;104874;1254;62455;-50
2023/03/08 05:32:21;;;;;;;13.40;10.00;;;;;;;2.08;100.00;98323.28;104858;1255;60510;-49
2023/03/08 05:34:53;;;;;;;15.20;11.80;;;;;;;2.10;100.00;98324.98;104996;1254;74236;-49
2023/03/08 05:37:28;;;;;;;21.70;13.30;;;;;;;2.11;100.00;98319.98;104798;1254;69229;-50
2023/03/08 05:40:00;;;;;;;22.60;15.40;;;;;;;2.14;100.00;98319.33;105837;1255;73798;-50
2023/03/08 05:42:31;;;;;;;15.00;9.80;;;;;;;2.17;100.00;98318.34;104760;1258;61517;-49
2023/03/08 05:45:01;;;;;;;12.30;8.50;;;;;;;2.21;100.00;98312.20;104932;1257;60614;-50
2023/03/08 05:47:34;;;;;;;14.50;8.70;;;;;;;2.23;100.00;98306.60;104785;1260;73780;-49
2023/03/08 05:50:02;;;;;;;16.90;9.50;;;;;;;2.25;100.00;98302.27;104927;1254;67281;-49
2023/03/08 05:52:32;;;;;;;12.40;8.80;;;;;;;2.28;100.00;98297.91;105792;1255;70178;-49
2023/03/08 05:55:04;;;;;;;14.10;8.80;;;;;;;2.32;100.00;98298.67;104815;1258;61379;-49
2023/03/08 05:57:33;;;;;;;15.70;9.10;;;;;;;2.35;100.00;98294.82;105399;1254;61545;-50
2023/03/08 06:00:03;;;;;;;17.20;9.30;;;;;;;2.41;100.00;98294.96;104812;1257;72934;-50
2023/03/08 06:02:43;;;;;;;15.00;10.20;;;;;;;2.46;100.00;98296.01;104636;1258;67636;-50
2023/03/08 06:05:12;;;;;;;15.40;10.30;;;;;;;2.51;100.00;98287.84;104872;1261;72395;-51
2023/03/08 06:07:43;;;;;;;14.30;10.10;;;;;;;2.55;100.00;98284.85;105215;1260;60429;-50
2023/03/08 06:10:13;;;;;;;12.90;9.30;;;;;;;2.59;100.00;98285.01;104765;1257;60406;-49
2023/03/08 06:12:41;;;;;;;15.30;10.10;;;;;;;2.64;100.00;98276.13;105225;1260;72969;-49
2023/03/08 06:15:12;;;;;;;12.00;9.30;;;;;;;2.70;100.00;98272.20;105548;1257;69119;-49
2023/03/08 06:17:40;;;;;;;15.30;9.60;;;;;;;2.76;100.00;98269.47;105465;1256;72938;-49
2023/03/08 06:20:09;;;;;;;13.30;8.70;;;;;;;2.83;100.00;98271.47;105137;1254;60813;-50
2023/03/08 06:22:39;;;;;;;17.20;9.30;;;;;;;2.91;100.00;98269.39;105952;1258;60902;-51
2023/03/08 06:25:10;;;;;;;17.30;9.90;;;;;;;2.96;100.00;98268.63;105346;1258;137359;-48
2023/03/08 06:29:31;;;;;;;14.30;10.40;;;;;;;3.06;100.00;98270.89;101978;1297;600453;-49
2023/03/08 06:32:02;;;;;;;18.90;10.90;;;;;;;3.13;100.00;98276.63;106056;1267;60786;-49
2023/03/08 06:34:31;;;;;;;14.80;9.70;;;;;;;3.20;100.00;98280.23;106391;1267;62328;-50
2023/03/08 06:37:01;;;;;;;19.50;11.10;;;;;;;3.27;100.00;98285.05;104558;1265;70943;-47
2023/03/08 06:39:30;;;;;;;18.60;11.70;;;;;;;3.36;100.00;98281.13;104168;1265;67065;-49
2023/03/08 06:42:02;;;;;;;11.70;8.20;;;;;;;3.46;100.00;98279.98;104415;1267;163330;-49
2023/03/08 06:44:31;;;;;;;14.80;10.10;;;;;;;3.57;100.00;98279.00;104729;1265;60481;-49
2023/03/08 06:46:59;;;;;;;15.70;10.60;;;;;;;3.67;100.00;98285.63;104264;1264;61085;-48
2023/03/08 06:49:27;;;;;;;16.50;10.50;;;;;;;3.77;100.00;98290.31;104950;1256;71471;-47
2023/03/08 06:51:56;;;;;;;18.20;11.40;;;;;;;3.86;100.00;98291.00;105178;1259;67036;-47
2023/03/08 06:54:24;;;;;;;15.70;11.00;;;;;;;3.95;100.00;98288.30;105276;1256;71450;-50
2023/03/08 06:56:52;;;;;;;15.90;11.40;;;;;;;4.02;100.00;98287.96;104735;1262;59747;-50
2023/03/08 06:59:20;;;;;;;17.20;11.40;;;;;;;4.10;100.00;98279.08;104427;1256;60180;-48
2023/03/08 07:01:48;;;;;;;17.40;11.40;;;;;;;4.17;100.00;98277.33;105446;1256;72297;-50
2023/03/08 07:04:17;;;;;;;15.30;10.50;;;;;;;4.24;100.00;98270.12;104910;1257;68984;-49
2023/03/08 07:06:50;;;;;;;14.70;10.60;;;;;;;4.31;100.00;98264.98;105177;1256;72987;-50
2023/03/08 07:09:18;;;;;;;13.60;10.80;;;;;;;4.37;100.00;98262.23;104649;1256;61425;-49
2023/03/08 07:11:46;;;;;;;20.70;11.10;;;;;;;4.42;100.00;98259.66;105451;1256;59642;-50
2023/03/08 07:14:15;;;;;;;14.20;9.90;;;;;;;4.48;100.00;98252.63;104472;1259;73010;-50
2023/03/08 07:16:44;;;;;;;15.20;11.20;;;;;;;4.53;100.00;98255.05;104817;1257;66817;-47
2023/03/08 07:19:12;;;;;;;15.80;10.80;;;;;;;4.59;100.00;98258.36;107774;1256;71741;-46
2023/03/08 07:21:43;;;;;;;19.60;12.20;;;;;;;4.64;100.00;98261.82;105200;1260;59793;-50
2023/03/08 07:24:11;;;;;;;18.00;12.40;;;;;;;4.70;100.00;98254.05;105009;1256;59538;-47
2023/03/08 07:26:39;;;;;;;18.80;11.50;;;;;;;4.75;100.00;98250.44;104665;1259;74645;-50
2023/03/08 07:29:07;;;;;;;17.90;11.40;;;;;;;4.80;100.00;98244.49;104680;1256;65447;-48
2023/03/08 07:31:36;;;;;;;17.30;11.80;;;;;;;4.83;100.00;98242.92;104850;1257;73995;-49
2023/03/08 07:34:05;;;;;;;16.80;12.60;;;;;;;4.85;100.00;98242.81;105521;1259;61195;-47
2023/03/08 07:36:35;;;;;;;19.70;12.30;;;;;;;4.87;100.00;98250.54;104584;1260;61506;-48
2023/03/08 07:39:03;;;;;;;16.20;10.80;;;;;;;4.89;100.00;98255.23;104882;1260;72438;-47
2023/03/08 07:41:33;;;;;;;13.70;11.40;;;;;;;4.92;100.00;98255.11;105464;1259;67197;-46
2023/03/08 07:44:02;;;;;;;17.80;12.80;;;;;;;4.96;100.00;98255.27;104964;1257;72828;-48
2023/03/08 07:46:35;;;;;;;18.60;11.80;;;;;;;5.00;100.00;98254.52;105710;1260;59733;-50
2023/03/08 07:49:09;;;;;;;17.30;11.10;;;;;;;5.04;100.00;98249.36;104924;1259;61388;-50
2023/03/08 07:51:37;;;;;;;22.80;11.80;;;;;;;5.05;100.00;98245.72;105158;1259;72252;-51
2023/03/08 07:54:06;;;;;;;19.00;11.80;;;;;;;5.07;100.00;98241.73;104721;1256;69096;-48
2023/03/08 07:56:34;;;;;;;19.40;11.80;;;;;;;5.08;100.00;98232.79;105433;1256;73655;-51
2023/03/08 07:59:03;;;;;;;19.30;11.60;;;;;;;5.10;100.00;98232.36;104561;1256;60490;-48
2023/03/08 08:01:31;;;;;;;18.40;12.90;;;;;;;5.12;100.00;98228.15;104365;1259;59541;-49
2023/03/08 08:03:59;;;;;;;16.70;11.40;;;;;;;5.12;100.00;98226.52;105042;1258;72909;-51
2023/03/08 08:06:29;;;;;;;17.40;10.70;;;;;;;5.15;100.00;98226.22;104380;1259;65792;-52
2023/03/08 08:08:57;;;;;;;15.30;10.70;;;;;;;5.18;100.00;98224.82;104385;1259;72996;-49
2023/03/08 08:11:25;;;;;;;19.00;11.50;;;;;;;5.23;100.00;98226.52;104840;1259;59698;-48
2023/03/08 08:13:55;;;;;;;17.80;11.50;;;;;;;5.31;100.00;98228.95;104627;1257;61485;-50
2023/03/08 08:16:23;;;;;;;15.80;11.00;;;;;;;5.41;100.00;98225.60;104776;1260;71760;-50
2023/03/08 08:18:53;;;;;;;15.90;10.40;;;;;;;5.51;100.00;98225.23;104872;1260;66597;-50
2023/03/08 08:21:22;;;;;;;17.00;12.00;;;;;;;5.62;100.00;98224.99;104907;1259;71866;-51
2023/03/08 08:23:56;;;;;;;13.60;10.30;;;;;;;5.74;100.00;98225.48;104543;1256;59652;-49
2023/03/08 08:26:24;;;;;;;15.10;10.50;;;;;;;5.83;100.00;98225.52;104562;1257;61205;-49
2023/03/08 08:28:52;;;;;;;16.80;12.00;;;;;;;5.91;100.00;98223.50;104615;1257;71774;-47
2023/03/08 08:31:22;;;;;;;13.00;10.60;;;;;;;5.99;100.00;98223.41;104444;1256;69462;-48
2023/03/08 08:33:51;;;;;;;11.20;9.80;;;;;;;6.07;100.00;98217.09;106994;1256;73807;-49
2023/03/08 08:36:20;;;;;;;10.90;9.50;;;;;;;6.15;100.00;98219.90;105776;1257;60129;-48
2023/03/08 08:38:48;;;;;;;10.90;9.20;;;;;;;6.21;100.00;98222.55;107804;1259;59721;-48
2023/03/08 08:41:17;;;;;;;12.70;9.90;;;;;;;6.27;100.00;98221.16;108488;1256;73273;-49
2023/03/08 08:43:46;;;;;;;15.70;11.90;;;;;;;6.34;100.00;98219.52;105040;1259;69061;-49
2023/03/08 08:46:14;;;;;;;12.80;10.10;;;;;;;6.42;100.00;98213.54;104601;1256;71764;-49
2023/03/08 08:48:42;;;;;;;13.90;10.20;;;;;;;6.51;100.00;98218.59;104324;1259;60583;-48
2023/03/08 08:51:11;;;;;;;15.10;10.20;;;;;;;6.59;100.00;98218.14;104727;1256;60319;-48
2023/03/08 08:53:39;;;;;;;13.70;9.90;;;;;;;6.66;100.00;98212.54;104229;1256;74372;-49
2023/03/08 08:56:12;;;;;;;13.20;9.90;;;;;;;6.71;100.00;98207.78;104329;1256;67207;-49
2023/03/08 08:58:58;;;;;;;13.60;9.40;;;;;;;6.76;100.00;98207.86;104514;1258;70882;-48
2023/03/08 09:01:28;;;;;;;15.20;10.20;;;;;;;6.81;100.00;98201.67;104676;1256;60068;-49
2023/03/08 09:04:16;;;;;;;10.60;8.40;;;;;;;6.88;100.00;98202.25;105517;1259;60619;-50
2023/03/08 09:06:46;;;;;;;12.20;8.30;;;;;;;6.93;100.00;98205.66;104616;1257;73346;-48
2023/03/08 09:09:15;;;;;;;10.20;8.20;;;;;;;6.98;100.00;98203.75;104621;1260;67261;-47
2023/03/08 09:11:48;;;;;;;11.60;9.20;;;;;;;7.03;100.00;98200.05;104885;1257;71413;-47
2023/03/08 09:14:24;;;;;;;10.70;8.60;;;;;;;7.08;100.00;98201.00;104290;1257;60157;-50
2023/03/08 09:16:52;;;;;;;13.50;9.00;;;;;;;7.14;100.00;98196.05;104360;1256;59619;-49
2023/03/08 09:19:20;;;;;;;10.10;8.50;;;;;;;7.20;100.00;98198.88;104481;1259;73430;-48
2023/03/08 09:21:49;;;;;;;10.60;7.40;;;;;;;7.23;100.00;98197.25;104817;1260;67131;-49
2023/03/08 09:24:17;;;;;;;7.20;5.90;;;;;;;7.24;100.00;98197.77;104834;1256;71660;-48
2023/03/08 09:26:47;;;;;;;11.00;8.00;;;;;;;7.21;100.00;98196.70;104843;1261;61448;-49
2023/03/08 09:29:15;;;;;;;9.30;7.70;;;;;;;7.18;100.00;98194.55;104767;1256;59610;-50
2023/03/08 09:31:44;;;;;;;11.20;7.60;;;;;;;7.14;100.00;98191.41;104587;1258;71176;-51
2023/03/08 09:34:14;;;;;;;10.40;8.80;;;;;;;7.09;100.00;98189.88;104632;1256;65071;-51
2023/03/08 09:36:42;;;;;;;10.10;8.50;;;;;;;7.05;100.00;98195.65;104904;1257;70655;-50
2023/03/08 09:39:12;;;;;;;8.80;7.60;;;;;;;7.03;100.00;98200.79;104523;1257;59954;-51
2023/03/08 09:41:47;;;;;;;10.20;7.80;;;;;;;6.99;100.00;98202.46;108724;1256;60320;-49
2023/03/08 09:44:42;;;;;;;10.80;8.10;;;;;;;6.94;100.00;98198.84;108891;1256;73683;-49
2023/03/08 09:47:14;;;;;;;11.10;7.40;;;;;;;6.89;100.00;98203.01;105151;1257;66425;-49
2023/03/08 09:49:42;;;;;;;10.80;8.30;;;;;;;6.86;100.00;98202.67;104633;1256;72362;-51
2023/03/08 09:52:39;;;;;;;9.50;7.30;;;;;;;6.82;100.00;98207.88;106816;1262;59212;-50
2023/03/08 09:55:28;;;;;;;11.70;8.70;;;;;;;6.77;100.00;98224.23;105236;1256;61753;-51
2023/03/08 09:58:39;;;;;;;13.20;9.30;;;;;;;6.75;100.00;98245.52;105014;1256;73105;-52
2023/03/08 10:01:19;;;;;;;11.40;8.30;;;;;;;-101.05;19.20;19649.33;102447;1256;1002843;-51
2023/03/08 10:04:19;;;;;;;11.40;10.00;;;;;;;-128.00;-1.00;-1.00;102264;1256;1014551;-52
2023/03/08 10:07:11;;;;;;;11.90;8.80;;;;;;;-128.00;-1.00;-1.00;104626;1259;1010103;-52
2023/03/08 10:09:46;;;;;;;12.60;8.90;;;;;;;-128.00;-1.00;-1.00;102709;1259;1011082;-51
2023/03/08 10:12:20;;;;;;;9.40;7.90;;;;;;;-128.00;-1.00;-1.00;102420;1259;1013502;-51
2023/03/08 10:14:51;;;;;;;10.20;8.10;;;;;;;-128.00;-1.00;-1.00;102295;1259;1012222;-51
2023/03/08 10:17:25;;;;;;;9.60;7.60;;;;;;;-128.00;-1.00;-1.00;103190;1259;1014104;-51
2023/03/08 10:19:56;;;;;;;10.40;8.70;;;;;;;-128.00;-1.00;-1.00;102228;1258;1010610;-50
2023/03/08 10:22:31;;;;;;;12.80;9.30;;;;;;;-128.00;-1.00;-1.00;102133;1260;1010737;-49
2023/03/08 10:25:20;;;;;;;;;;;;;;;-128.00;-1.00;-1.00;104459;1259;1013049;-51
2023/03/08 10:27:51;;;;;;;12.50;9.10;;;;;;;-128.00;-1.00;-1.00;102276;1259;1012851;-51
2023/03/08 10:30:21;;;;;;;11.70;8.90;;;;;;;-128.00;-1.00;-1.00;102306;1256;1013650;-50
2023/03/08 10:32:50;;;;;;;16.90;11.10;;;;;;;-128.00;-1.00;-1.00;102524;1257;1011099;-50
2023/03/08 10:35:29;;;;;;;13.80;10.20;;;;;;;-128.00;-1.00;-1.00;102516;1258;1011567;-50
2023/03/08 10:37:59;;;;;;;12.50;10.00;;;;;;;-128.00;-1.00;-1.00;102888;1257;1013907;-51
2023/03/08 10:40:27;;;;;;;14.30;11.40;;;;;;;-128.00;-1.00;-1.00;102302;1260;1012193;-50
2023/03/08 10:42:59;;;;;;;15.80;11.60;;;;;;;-128.00;-1.00;-1.00;102440;1258;1012699;-52
2023/03/08 10:45:28;;;;;;;15.80;12.00;;;;;;;-128.00;-1.00;-1.00;102264;1257;1010524;-51
2023/03/08 10:48:04;;;;;;;16.60;11.90;;;;;;;-128.00;-1.00;-1.00;102341;1257;1011091;-53
2023/03/08 10:50:35;;;;;;;14.80;12.50;;;;;;;-128.00;-1.00;-1.00;102216;1256;1013223;-51
2023/03/08 10:53:18;;;;;;;20.10;13.30;;;;;;;-128.00;-1.00;-1.00;102230;1261;1012427;-51
2023/03/08 10:55:51;;;;;;;15.30;11.20;;;;;;;-128.00;-1.00;-1.00;101910;1258;1012290;-51
2023/03/08 10:58:40;;;;;;;14.80;10.90;;;;;;;-128.00;-1.00;-1.00;102259;1258;1010672;-48
2023/03/08 11:01:29;;;;;;;13.70;11.90;;;;;;;-128.00;-1.00;-1.00;102226;1258;1011625;-52
2023/03/08 11:04:03;;;;;;;15.40;11.50;;;;;;;-128.00;-1.00;-1.00;102877;1259;1013601;-51
2023/03/08 11:06:34;;;;;;;15.40;11.40;;;;;;;-128.00;-1.00;-1.00;102116;1260;1012259;-50
2023/03/08 11:09:03;;;;;;;19.50;12.10;;;;;;;-128.00;-1.00;-1.00;102483;1257;1012372;-52
2023/03/08 11:11:40;;;;;;;14.70;11.50;;;;;;;-128.00;-1.00;-1.00;102344;1258;1010190;-50
2023/03/08 11:14:09;;;;;;;15.50;11.60;;;;;;;-128.00;-1.00;-1.00;102129;1257;1011932;-51
2023/03/08 11:17:16;;;;;;;15.80;12.00;;;;;;;-128.00;-1.00;-1.00;103050;1257;1012883;-50
2023/03/08 11:19:52;;;;;;;17.20;11.40;;;;;;;-128.00;-1.00;-1.00;101862;1262;1012503;-51
2023/03/08 11:22:47;;;;;;;17.60;11.20;;;;;;;-128.00;-1.00;-1.00;102231;1257;1012757;-52
2023/03/08 11:25:24;;;;;;;17.60;13.30;;;;;;;-128.00;-1.00;-1.00;102291;1260;1010722;-51
2023/03/08 11:27:59;;;;;;;16.60;12.50;;;;;;;-128.00;-1.00;-1.00;102293;1256;1011309;-49
2023/03/08 11:30:53;;;;;;;12.50;10.10;;;;;;;-128.00;-1.00;-1.00;102724;1256;1013379;-51
2023/03/08 11:33:29;;;;;;;14.40;10.00;;;;;;;-128.00;-1.00;-1.00;104067;1256;1012762;-50
2023/03/08 11:36:03;;;;;;;15.10;10.40;;;;;;;-128.00;-1.00;-1.00;102406;1256;1013053;-50